sensor_id;sensor_type;location;lat;lon;timestamp;P1;durP1;ratioP1;P2;durP2;ratioP2
56425;SDS011;42330;43.620;3.856;2022-11-25T00:00:26;10.88;;;3.67;;
56425;SDS011;42330;43.620;3.856;2022-11-25T00:02:51;8.93;;;3.63;;
56425;SDS011;42330;43.620;3.856;2022-11-25T00:05:17;12.13;;;3.60;;
56425;SDS011;42330;43.620;3.856;2022-11-25T00:07:43;10.50;;;3.75;;
56425;SDS011;42330;43.620;3.856;2022-11-25T00:10:08;9.57;;;3.75;;
56425;SDS011;42330;43.620;3.856;2022-11-25T00:12:34;9.25;;;3.40;;
56425;SDS011;42330;43.620;3.856;2022-11-25T00:15:00;8.95;;;2.97;;
56425;SDS011;42330;43.620;3.856;2022-11-25T00:17:26;9.13;;;3.75;;
56425;SDS011;42330;43.620;3.856;2022-11-25T00:19:51;12.63;;;4.07;;
56425;SDS011;42330;43.620;3.856;2022-11-25T00:22:17;8.60;;;3.58;;
56425;SDS011;42330;43.620;3.856;2022-11-25T00:24:42;10.32;;;3.53;;
56425;SDS011;42330;43.620;3.856;2022-11-25T00:27:08;10.60;;;3.70;;
56425;SDS011;42330;43.620;3.856;2022-11-25T00:29:34;11.45;;;3.47;;
56425;SDS011;42330;43.620;3.856;2022-11-25T00:31:59;12.20;;;3.72;;
56425;SDS011;42330;43.620;3.856;2022-11-25T00:34:25;13.30;;;3.90;;
56425;SDS011;42330;43.620;3.856;2022-11-25T00:36:51;8.65;;;3.35;;
56425;SDS011;42330;43.620;3.856;2022-11-25T00:39:17;8.98;;;3.35;;
56425;SDS011;42330;43.620;3.856;2022-11-25T00:41:44;9.30;;;3.20;;
56425;SDS011;42330;43.620;3.856;2022-11-25T00:44:29;9.63;;;3.42;;
56425;SDS011;42330;43.620;3.856;2022-11-25T00:49:29;10.60;;;3.45;;
56425;SDS011;42330;43.620;3.856;2022-11-25T00:51:55;11.43;;;3.50;;
56425;SDS011;42330;43.620;3.856;2022-11-25T00:54:21;9.02;;;3.72;;
56425;SDS011;42330;43.620;3.856;2022-11-25T00:56:47;10.68;;;3.60;;
56425;SDS011;42330;43.620;3.856;2022-11-25T00:59:12;11.98;;;3.40;;
56425;SDS011;42330;43.620;3.856;2022-11-25T01:01:38;9.13;;;3.50;;
56425;SDS011;42330;43.620;3.856;2022-11-25T01:04:04;9.18;;;3.25;;
56425;SDS011;42330;43.620;3.856;2022-11-25T01:06:30;11.32;;;3.70;;
56425;SDS011;42330;43.620;3.856;2022-11-25T01:08:56;11.57;;;3.25;;
56425;SDS011;42330;43.620;3.856;2022-11-25T01:11:22;9.95;;;3.50;;
56425;SDS011;42330;43.620;3.856;2022-11-25T01:13:48;10.85;;;3.38;;
56425;SDS011;42330;43.620;3.856;2022-11-25T01:16:16;7.90;;;3.25;;
56425;SDS011;42330;43.620;3.856;2022-11-25T01:18:43;7.20;;;2.80;;
56425;SDS011;42330;43.620;3.856;2022-11-25T01:21:18;9.95;;;3.45;;
56425;SDS011;42330;43.620;3.856;2022-11-25T01:23:45;11.20;;;3.70;;
56425;SDS011;42330;43.620;3.856;2022-11-25T01:26:13;7.97;;;3.08;;
56425;SDS011;42330;43.620;3.856;2022-11-25T01:28:40;9.00;;;3.47;;
56425;SDS011;42330;43.620;3.856;2022-11-25T01:31:08;10.98;;;3.15;;
56425;SDS011;42330;43.620;3.856;2022-11-25T01:33:36;10.15;;;3.38;;
56425;SDS011;42330;43.620;3.856;2022-11-25T01:36:03;10.60;;;3.40;;
56425;SDS011;42330;43.620;3.856;2022-11-25T01:38:31;7.00;;;3.13;;
56425;SDS011;42330;43.620;3.856;2022-11-25T01:40:58;9.57;;;2.72;;
56425;SDS011;42330;43.620;3.856;2022-11-25T01:43:24;9.10;;;3.30;;
56425;SDS011;42330;43.620;3.856;2022-11-25T01:45:51;10.38;;;3.45;;
56425;SDS011;42330;43.620;3.856;2022-11-25T01:50:49;13.10;;;3.67;;
56425;SDS011;42330;43.620;3.856;2022-11-25T01:53:15;8.82;;;3.35;;
56425;SDS011;42330;43.620;3.856;2022-11-25T01:55:44;11.15;;;3.55;;
56425;SDS011;42330;43.620;3.856;2022-11-25T01:58:15;12.52;;;3.72;;
56425;SDS011;42330;43.620;3.856;2022-11-25T02:00:44;11.32;;;3.75;;
56425;SDS011;42330;43.620;3.856;2022-11-25T02:03:16;10.20;;;3.38;;
56425;SDS011;42330;43.620;3.856;2022-11-25T02:05:55;7.90;;;3.25;;
56425;SDS011;42330;43.620;3.856;2022-11-25T02:08:27;10.20;;;3.58;;
56425;SDS011;42330;43.620;3.856;2022-11-25T02:10:54;10.73;;;3.78;;
56425;SDS011;42330;43.620;3.856;2022-11-25T02:13:21;11.02;;;3.85;;
56425;SDS011;42330;43.620;3.856;2022-11-25T02:15:47;8.80;;;3.55;;
56425;SDS011;42330;43.620;3.856;2022-11-25T02:18:13;13.95;;;4.45;;
56425;SDS011;42330;43.620;3.856;2022-11-25T02:20:39;8.85;;;3.03;;
56425;SDS011;42330;43.620;3.856;2022-11-25T02:25:55;9.88;;;3.88;;
56425;SDS011;42330;43.620;3.856;2022-11-25T02:28:22;10.18;;;3.40;;
56425;SDS011;42330;43.620;3.856;2022-11-25T02:30:50;9.77;;;3.55;;
56425;SDS011;42330;43.620;3.856;2022-11-25T02:33:17;9.35;;;3.55;;
56425;SDS011;42330;43.620;3.856;2022-11-25T02:35:47;10.75;;;4.20;;
56425;SDS011;42330;43.620;3.856;2022-11-25T02:43:41;9.45;;;3.60;;
56425;SDS011;42330;43.620;3.856;2022-11-25T02:46:08;9.00;;;3.22;;
56425;SDS011;42330;43.620;3.856;2022-11-25T02:48:42;9.80;;;3.15;;
56425;SDS011;42330;43.620;3.856;2022-11-25T02:51:09;11.32;;;3.90;;
56425;SDS011;42330;43.620;3.856;2022-11-25T02:53:36;8.57;;;3.13;;
56425;SDS011;42330;43.620;3.856;2022-11-25T02:56:03;8.23;;;3.15;;
56425;SDS011;42330;43.620;3.856;2022-11-25T02:58:29;8.52;;;3.17;;
56425;SDS011;42330;43.620;3.856;2022-11-25T03:00:55;8.80;;;3.08;;
56425;SDS011;42330;43.620;3.856;2022-11-25T03:03:21;9.93;;;2.60;;
56425;SDS011;42330;43.620;3.856;2022-11-25T03:05:46;8.00;;;2.33;;
56425;SDS011;42330;43.620;3.856;2022-11-25T03:08:12;9.95;;;2.53;;
56425;SDS011;42330;43.620;3.856;2022-11-25T03:10:38;7.43;;;2.50;;
56425;SDS011;42330;43.620;3.856;2022-11-25T03:13:05;7.40;;;2.65;;
56425;SDS011;42330;43.620;3.856;2022-11-25T03:15:32;10.25;;;2.65;;
56425;SDS011;42330;43.620;3.856;2022-11-25T03:17:58;8.18;;;2.33;;
56425;SDS011;42330;43.620;3.856;2022-11-25T03:20:24;7.43;;;2.25;;
56425;SDS011;42330;43.620;3.856;2022-11-25T03:22:49;6.25;;;2.20;;
56425;SDS011;42330;43.620;3.856;2022-11-25T03:25:16;8.55;;;2.40;;
56425;SDS011;42330;43.620;3.856;2022-11-25T03:27:42;7.97;;;2.55;;
56425;SDS011;42330;43.620;3.856;2022-11-25T03:30:11;6.03;;;2.10;;
56425;SDS011;42330;43.620;3.856;2022-11-25T03:32:38;7.07;;;2.10;;
56425;SDS011;42330;43.620;3.856;2022-11-25T03:35:04;6.68;;;2.53;;
56425;SDS011;42330;43.620;3.856;2022-11-25T03:37:31;7.80;;;2.60;;
56425;SDS011;42330;43.620;3.856;2022-11-25T03:39:56;6.05;;;2.17;;
56425;SDS011;42330;43.620;3.856;2022-11-25T03:42:22;9.90;;;3.13;;
56425;SDS011;42330;43.620;3.856;2022-11-25T03:44:48;11.98;;;2.53;;
56425;SDS011;42330;43.620;3.856;2022-11-25T03:47:13;7.40;;;2.60;;
56425;SDS011;42330;43.620;3.856;2022-11-25T03:49:39;6.88;;;1.88;;
56425;SDS011;42330;43.620;3.856;2022-11-25T03:52:05;7.53;;;2.20;;
56425;SDS011;42330;43.620;3.856;2022-11-25T03:54:30;7.50;;;2.40;;
56425;SDS011;42330;43.620;3.856;2022-11-25T03:56:56;9.68;;;2.20;;
56425;SDS011;42330;43.620;3.856;2022-11-25T03:59:22;7.82;;;2.28;;
56425;SDS011;42330;43.620;3.856;2022-11-25T04:01:47;9.73;;;2.30;;
56425;SDS011;42330;43.620;3.856;2022-11-25T04:04:13;8.20;;;2.30;;
56425;SDS011;42330;43.620;3.856;2022-11-25T04:06:39;8.43;;;2.22;;
56425;SDS011;42330;43.620;3.856;2022-11-25T04:09:05;9.48;;;2.53;;
56425;SDS011;42330;43.620;3.856;2022-11-25T04:11:32;10.90;;;2.40;;
56425;SDS011;42330;43.620;3.856;2022-11-25T04:14:16;8.70;;;2.50;;
56425;SDS011;42330;43.620;3.856;2022-11-25T04:16:42;9.70;;;2.38;;
56425;SDS011;42330;43.620;3.856;2022-11-25T04:19:07;6.30;;;2.60;;
56425;SDS011;42330;43.620;3.856;2022-11-25T04:21:33;6.65;;;2.50;;
56425;SDS011;42330;43.620;3.856;2022-11-25T04:23:59;9.40;;;2.70;;
56425;SDS011;42330;43.620;3.856;2022-11-25T04:26:24;9.23;;;2.60;;
56425;SDS011;42330;43.620;3.856;2022-11-25T04:28:50;7.60;;;2.47;;
56425;SDS011;42330;43.620;3.856;2022-11-25T04:31:16;12.07;;;2.95;;
56425;SDS011;42330;43.620;3.856;2022-11-25T04:33:41;9.02;;;2.63;;
56425;SDS011;42330;43.620;3.856;2022-11-25T04:36:07;10.45;;;3.22;;
56425;SDS011;42330;43.620;3.856;2022-11-25T04:38:33;11.40;;;3.25;;
56425;SDS011;42330;43.620;3.856;2022-11-25T04:40:59;8.50;;;3.00;;
56425;SDS011;42330;43.620;3.856;2022-11-25T04:43:25;12.30;;;2.60;;
56425;SDS011;42330;43.620;3.856;2022-11-25T04:45:50;10.27;;;3.38;;
56425;SDS011;42330;43.620;3.856;2022-11-25T04:48:17;7.97;;;2.70;;
56425;SDS011;42330;43.620;3.856;2022-11-25T04:50:42;6.35;;;2.38;;
56425;SDS011;42330;43.620;3.856;2022-11-25T04:53:08;8.70;;;2.78;;
56425;SDS011;42330;43.620;3.856;2022-11-25T04:55:34;10.93;;;2.72;;
56425;SDS011;42330;43.620;3.856;2022-11-25T04:57:59;11.43;;;2.80;;
56425;SDS011;42330;43.620;3.856;2022-11-25T05:00:25;13.35;;;2.85;;
56425;SDS011;42330;43.620;3.856;2022-11-25T05:02:51;10.57;;;2.83;;
56425;SDS011;42330;43.620;3.856;2022-11-25T05:05:16;9.73;;;3.20;;
56425;SDS011;42330;43.620;3.856;2022-11-25T05:07:42;9.25;;;2.75;;
56425;SDS011;42330;43.620;3.856;2022-11-25T05:10:08;9.13;;;2.90;;
56425;SDS011;42330;43.620;3.856;2022-11-25T05:12:34;6.45;;;2.50;;
56425;SDS011;42330;43.620;3.856;2022-11-25T05:14:59;7.38;;;2.60;;
56425;SDS011;42330;43.620;3.856;2022-11-25T05:17:26;8.70;;;2.70;;
56425;SDS011;42330;43.620;3.856;2022-11-25T05:19:53;10.70;;;3.00;;
56425;SDS011;42330;43.620;3.856;2022-11-25T05:22:23;6.38;;;2.70;;
56425;SDS011;42330;43.620;3.856;2022-11-25T05:24:53;7.28;;;2.53;;
56425;SDS011;42330;43.620;3.856;2022-11-25T05:27:19;8.63;;;2.72;;
56425;SDS011;42330;43.620;3.856;2022-11-25T05:29:46;6.50;;;2.53;;
56425;SDS011;42330;43.620;3.856;2022-11-25T05:32:12;11.52;;;3.30;;
56425;SDS011;42330;43.620;3.856;2022-11-25T05:34:39;8.48;;;3.20;;
56425;SDS011;42330;43.620;3.856;2022-11-25T05:37:05;13.52;;;3.60;;
56425;SDS011;42330;43.620;3.856;2022-11-25T05:39:32;10.32;;;3.20;;
56425;SDS011;42330;43.620;3.856;2022-11-25T05:41:57;13.32;;;3.47;;
56425;SDS011;42330;43.620;3.856;2022-11-25T05:44:23;9.02;;;2.95;;
56425;SDS011;42330;43.620;3.856;2022-11-25T05:46:49;9.63;;;3.17;;
56425;SDS011;42330;43.620;3.856;2022-11-25T05:49:15;10.93;;;2.92;;
56425;SDS011;42330;43.620;3.856;2022-11-25T05:51:41;7.75;;;2.90;;
56425;SDS011;42330;43.620;3.856;2022-11-25T05:54:07;12.23;;;3.40;;
56425;SDS011;42330;43.620;3.856;2022-11-25T05:56:32;13.00;;;3.50;;
56425;SDS011;42330;43.620;3.856;2022-11-25T05:58:58;10.63;;;3.15;;
56425;SDS011;42330;43.620;3.856;2022-11-25T06:01:25;8.43;;;2.60;;
56425;SDS011;42330;43.620;3.856;2022-11-25T06:03:50;7.68;;;2.72;;
56425;SDS011;42330;43.620;3.856;2022-11-25T06:06:16;14.80;;;3.25;;
56425;SDS011;42330;43.620;3.856;2022-11-25T06:08:42;11.82;;;3.60;;
56425;SDS011;42330;43.620;3.856;2022-11-25T06:11:12;10.00;;;2.85;;
56425;SDS011;42330;43.620;3.856;2022-11-25T06:13:40;8.02;;;2.60;;
56425;SDS011;42330;43.620;3.856;2022-11-25T06:16:08;11.43;;;2.78;;
56425;SDS011;42330;43.620;3.856;2022-11-25T06:18:36;10.30;;;3.13;;
56425;SDS011;42330;43.620;3.856;2022-11-25T06:21:02;7.25;;;2.72;;
56425;SDS011;42330;43.620;3.856;2022-11-25T06:23:29;9.68;;;2.60;;
56425;SDS011;42330;43.620;3.856;2022-11-25T06:26:02;8.50;;;2.72;;
56425;SDS011;42330;43.620;3.856;2022-11-25T06:28:38;9.90;;;2.42;;
56425;SDS011;42330;43.620;3.856;2022-11-25T06:31:08;8.48;;;2.50;;
56425;SDS011;42330;43.620;3.856;2022-11-25T06:33:36;7.15;;;2.55;;
56425;SDS011;42330;43.620;3.856;2022-11-25T06:36:05;7.75;;;2.67;;
56425;SDS011;42330;43.620;3.856;2022-11-25T06:38:32;10.73;;;4.55;;
56425;SDS011;42330;43.620;3.856;2022-11-25T06:41:03;12.05;;;5.35;;
56425;SDS011;42330;43.620;3.856;2022-11-25T06:43:30;12.13;;;6.15;;
56425;SDS011;42330;43.620;3.856;2022-11-25T06:46:29;11.98;;;4.45;;
56425;SDS011;42330;43.620;3.856;2022-11-25T06:48:48;10.02;;;3.28;;
56425;SDS011;42330;43.620;3.856;2022-11-25T06:51:14;8.63;;;3.17;;
56425;SDS011;42330;43.620;3.856;2022-11-25T06:53:40;8.52;;;3.00;;
56425;SDS011;42330;43.620;3.856;2022-11-25T06:56:14;8.23;;;2.83;;
56425;SDS011;42330;43.620;3.856;2022-11-25T07:01:10;14.40;;;3.58;;
56425;SDS011;42330;43.620;3.856;2022-11-25T07:03:41;12.20;;;2.83;;
56425;SDS011;42330;43.620;3.856;2022-11-25T07:06:08;9.35;;;2.83;;
56425;SDS011;42330;43.620;3.856;2022-11-25T07:08:35;8.95;;;2.90;;
56425;SDS011;42330;43.620;3.856;2022-11-25T07:11:05;12.07;;;3.83;;
56425;SDS011;42330;43.620;3.856;2022-11-25T07:13:41;10.98;;;3.50;;
56425;SDS011;42330;43.620;3.856;2022-11-25T07:16:07;11.18;;;3.42;;
56425;SDS011;42330;43.620;3.856;2022-11-25T07:18:35;7.78;;;3.30;;
56425;SDS011;42330;43.620;3.856;2022-11-25T07:21:02;8.80;;;3.53;;
56425;SDS011;42330;43.620;3.856;2022-11-25T07:23:29;14.27;;;8.05;;
56425;SDS011;42330;43.620;3.856;2022-11-25T07:25:59;15.77;;;5.20;;
56425;SDS011;42330;43.620;3.856;2022-11-25T07:28:29;16.90;;;6.00;;
56425;SDS011;42330;43.620;3.856;2022-11-25T07:30:55;16.08;;;5.40;;
56425;SDS011;42330;43.620;3.856;2022-11-25T07:33:27;12.27;;;4.20;;
56425;SDS011;42330;43.620;3.856;2022-11-25T07:35:53;12.75;;;4.80;;
56425;SDS011;42330;43.620;3.856;2022-11-25T07:38:18;10.93;;;3.45;;
56425;SDS011;42330;43.620;3.856;2022-11-25T07:40:44;10.75;;;3.70;;
56425;SDS011;42330;43.620;3.856;2022-11-25T07:43:10;12.93;;;3.53;;
56425;SDS011;42330;43.620;3.856;2022-11-25T07:45:35;9.70;;;3.53;;
56425;SDS011;42330;43.620;3.856;2022-11-25T07:48:01;15.05;;;3.80;;
56425;SDS011;42330;43.620;3.856;2022-11-25T07:50:27;22.73;;;5.18;;
56425;SDS011;42330;43.620;3.856;2022-11-25T07:52:52;32.83;;;5.20;;
56425;SDS011;42330;43.620;3.856;2022-11-25T07:55:18;37.42;;;5.20;;
56425;SDS011;42330;43.620;3.856;2022-11-25T07:57:44;19.77;;;4.00;;
56425;SDS011;42330;43.620;3.856;2022-11-25T08:00:09;12.65;;;3.20;;
56425;SDS011;42330;43.620;3.856;2022-11-25T08:02:35;8.52;;;2.70;;
56425;SDS011;42330;43.620;3.856;2022-11-25T08:05:01;7.55;;;2.60;;
56425;SDS011;42330;43.620;3.856;2022-11-25T08:07:27;15.00;;;3.15;;
56425;SDS011;42330;43.620;3.856;2022-11-25T08:09:52;11.35;;;3.20;;
56425;SDS011;42330;43.620;3.856;2022-11-25T08:12:18;12.88;;;3.30;;
56425;SDS011;42330;43.620;3.856;2022-11-25T08:14:44;6.97;;;3.55;;
56425;SDS011;42330;43.620;3.856;2022-11-25T08:17:09;6.63;;;2.97;;
56425;SDS011;42330;43.620;3.856;2022-11-25T08:19:36;9.52;;;3.63;;
56425;SDS011;42330;43.620;3.856;2022-11-25T08:22:01;9.65;;;3.38;;
56425;SDS011;42330;43.620;3.856;2022-11-25T08:24:27;11.75;;;3.83;;
56425;SDS011;42330;43.620;3.856;2022-11-25T08:26:53;13.27;;;3.40;;
56425;SDS011;42330;43.620;3.856;2022-11-25T08:29:20;13.82;;;2.78;;
56425;SDS011;42330;43.620;3.856;2022-11-25T08:31:46;6.53;;;2.30;;
56425;SDS011;42330;43.620;3.856;2022-11-25T08:34:15;10.77;;;3.17;;
56425;SDS011;42330;43.620;3.856;2022-11-25T08:39:12;17.40;;;3.40;;
56425;SDS011;42330;43.620;3.856;2022-11-25T08:41:37;12.30;;;2.85;;
56425;SDS011;42330;43.620;3.856;2022-11-25T08:44:04;12.18;;;2.80;;
56425;SDS011;42330;43.620;3.856;2022-11-25T08:46:32;11.18;;;2.83;;
56425;SDS011;42330;43.620;3.856;2022-11-25T08:49:00;13.48;;;3.38;;
56425;SDS011;42330;43.620;3.856;2022-11-25T08:51:28;14.20;;;3.30;;
56425;SDS011;42330;43.620;3.856;2022-11-25T08:53:56;11.40;;;2.85;;
56425;SDS011;42330;43.620;3.856;2022-11-25T08:56:23;11.98;;;3.20;;
56425;SDS011;42330;43.620;3.856;2022-11-25T08:58:50;8.40;;;2.40;;
56425;SDS011;42330;43.620;3.856;2022-11-25T09:01:17;8.32;;;2.10;;
56425;SDS011;42330;43.620;3.856;2022-11-25T09:03:44;9.30;;;2.67;;
56425;SDS011;42330;43.620;3.856;2022-11-25T09:06:12;12.00;;;3.58;;
56425;SDS011;42330;43.620;3.856;2022-11-25T09:08:39;13.10;;;3.22;;
56425;SDS011;42330;43.620;3.856;2022-11-25T09:11:06;14.75;;;2.60;;
56425;SDS011;42330;43.620;3.856;2022-11-25T09:13:32;11.38;;;2.17;;
56425;SDS011;42330;43.620;3.856;2022-11-25T09:15:59;10.95;;;1.60;;
56425;SDS011;42330;43.620;3.856;2022-11-25T09:18:25;9.50;;;2.00;;
56425;SDS011;42330;43.620;3.856;2022-11-25T09:20:54;7.00;;;1.60;;
56425;SDS011;42330;43.620;3.856;2022-11-25T09:23:20;7.05;;;1.65;;
56425;SDS011;42330;43.620;3.856;2022-11-25T09:25:50;14.70;;;2.22;;
56425;SDS011;42330;43.620;3.856;2022-11-25T09:28:17;5.93;;;1.70;;
56425;SDS011;42330;43.620;3.856;2022-11-25T09:30:43;8.02;;;2.13;;
56425;SDS011;42330;43.620;3.856;2022-11-25T09:33:09;5.57;;;1.70;;
56425;SDS011;42330;43.620;3.856;2022-11-25T09:35:35;7.00;;;1.60;;
56425;SDS011;42330;43.620;3.856;2022-11-25T09:38:01;6.53;;;1.40;;
56425;SDS011;42330;43.620;3.856;2022-11-25T09:54:32;6.65;;;1.52;;
56425;SDS011;42330;43.620;3.856;2022-11-25T10:05:02;4.95;;;1.30;;
56425;SDS011;42330;43.620;3.856;2022-11-25T10:07:41;5.78;;;1.40;;
56425;SDS011;42330;43.620;3.856;2022-11-25T10:10:17;8.75;;;3.42;;
56425;SDS011;42330;43.620;3.856;2022-11-25T10:12:50;11.32;;;2.20;;
56425;SDS011;42330;43.620;3.856;2022-11-25T10:15:41;9.27;;;2.75;;
56425;SDS011;42330;43.620;3.856;2022-11-25T10:21:04;14.98;;;6.30;;
56425;SDS011;42330;43.620;3.856;2022-11-25T10:23:33;10.40;;;2.88;;
56425;SDS011;42330;43.620;3.856;2022-11-25T10:26:01;6.53;;;2.25;;
56425;SDS011;42330;43.620;3.856;2022-11-25T10:28:36;3.83;;;1.70;;
56425;SDS011;42330;43.620;3.856;2022-11-25T10:31:05;7.50;;;1.90;;
56425;SDS011;42330;43.620;3.856;2022-11-25T10:33:47;8.13;;;1.65;;
56425;SDS011;42330;43.620;3.856;2022-11-25T10:36:25;7.38;;;1.60;;
56425;SDS011;42330;43.620;3.856;2022-11-25T10:41:42;6.30;;;1.60;;
56425;SDS011;42330;43.620;3.856;2022-11-25T10:44:25;6.43;;;1.33;;
56425;SDS011;42330;43.620;3.856;2022-11-25T10:52:27;3.60;;;1.15;;
56425;SDS011;42330;43.620;3.856;2022-11-25T10:54:55;4.53;;;1.20;;
56425;SDS011;42330;43.620;3.856;2022-11-25T10:57:25;3.70;;;1.27;;
56425;SDS011;42330;43.620;3.856;2022-11-25T10:59:57;8.15;;;1.70;;
56425;SDS011;42330;43.620;3.856;2022-11-25T11:07:22;4.50;;;1.38;;
56425;SDS011;42330;43.620;3.856;2022-11-25T11:09:49;7.75;;;1.60;;
56425;SDS011;42330;43.620;3.856;2022-11-25T11:14:44;6.40;;;1.30;;
56425;SDS011;42330;43.620;3.856;2022-11-25T11:17:22;3.72;;;1.20;;
56425;SDS011;42330;43.620;3.856;2022-11-25T11:20:28;4.07;;;1.50;;
56425;SDS011;42330;43.620;3.856;2022-11-25T11:22:49;6.40;;;1.70;;
56425;SDS011;42330;43.620;3.856;2022-11-25T11:27:44;4.57;;;1.10;;
56425;SDS011;42330;43.620;3.856;2022-11-25T11:30:15;5.57;;;1.05;;
56425;SDS011;42330;43.620;3.856;2022-11-25T11:32:44;3.88;;;0.95;;
56425;SDS011;42330;43.620;3.856;2022-11-25T11:35:53;6.30;;;1.20;;
56425;SDS011;42330;43.620;3.856;2022-11-25T11:38:36;6.03;;;1.10;;
56425;SDS011;42330;43.620;3.856;2022-11-25T11:42:12;4.10;;;1.00;;
56425;SDS011;42330;43.620;3.856;2022-11-25T11:47:17;6.05;;;1.40;;
56425;SDS011;42330;43.620;3.856;2022-11-25T11:53:21;4.22;;;0.90;;
56425;SDS011;42330;43.620;3.856;2022-11-25T11:56:08;6.65;;;1.50;;
56425;SDS011;42330;43.620;3.856;2022-11-25T12:06:25;4.47;;;1.13;;
56425;SDS011;42330;43.620;3.856;2022-11-25T12:09:03;5.30;;;1.52;;
56425;SDS011;42330;43.620;3.856;2022-11-25T12:11:39;7.10;;;1.90;;
56425;SDS011;42330;43.620;3.856;2022-11-25T12:14:24;7.38;;;1.80;;
56425;SDS011;42330;43.620;3.856;2022-11-25T12:17:12;8.02;;;1.98;;
56425;SDS011;42330;43.620;3.856;2022-11-25T12:22:32;5.15;;;1.40;;
56425;SDS011;42330;43.620;3.856;2022-11-25T12:25:30;4.75;;;1.35;;
56425;SDS011;42330;43.620;3.856;2022-11-25T12:30:44;4.28;;;0.90;;
56425;SDS011;42330;43.620;3.856;2022-11-25T12:36:37;4.80;;;0.90;;
56425;SDS011;42330;43.620;3.856;2022-11-25T12:41:43;3.30;;;0.70;;
56425;SDS011;42330;43.620;3.856;2022-11-25T12:44:20;2.28;;;0.80;;
56425;SDS011;42330;43.620;3.856;2022-11-25T12:46:52;2.63;;;0.70;;
56425;SDS011;42330;43.620;3.856;2022-11-25T12:49:21;4.07;;;0.60;;
56425;SDS011;42330;43.620;3.856;2022-11-25T13:00:02;1.25;;;0.50;;
56425;SDS011;42330;43.620;3.856;2022-11-25T13:16:37;1.25;;;0.50;;
56425;SDS011;42330;43.620;3.856;2022-11-25T13:19:07;0.88;;;0.38;;
56425;SDS011;42330;43.620;3.856;2022-11-25T13:21:36;1.63;;;0.50;;
56425;SDS011;42330;43.620;3.856;2022-11-25T13:24:26;0.93;;;0.43;;
56425;SDS011;42330;43.620;3.856;2022-11-25T13:27:02;0.65;;;0.30;;
56425;SDS011;42330;43.620;3.856;2022-11-25T13:32:02;1.95;;;1.00;;
56425;SDS011;42330;43.620;3.856;2022-11-25T13:34:49;1.48;;;0.40;;
56425;SDS011;42330;43.620;3.856;2022-11-25T13:37:34;0.60;;;0.40;;
56425;SDS011;42330;43.620;3.856;2022-11-25T13:40:28;1.38;;;0.50;;
56425;SDS011;42330;43.620;3.856;2022-11-25T13:42:58;0.50;;;0.20;;
56425;SDS011;42330;43.620;3.856;2022-11-25T13:47:52;1.30;;;0.57;;
56425;SDS011;42330;43.620;3.856;2022-11-25T13:50:21;2.42;;;0.50;;
56425;SDS011;42330;43.620;3.856;2022-11-25T13:55:34;2.10;;;0.43;;
56425;SDS011;42330;43.620;3.856;2022-11-25T14:03:43;1.17;;;0.60;;
56425;SDS011;42330;43.620;3.856;2022-11-25T14:06:06;6.47;;;3.47;;
56425;SDS011;42330;43.620;3.856;2022-11-25T14:08:52;2.38;;;0.80;;
56425;SDS011;42330;43.620;3.856;2022-11-25T14:11:32;3.22;;;0.90;;
56425;SDS011;42330;43.620;3.856;2022-11-25T14:14:28;2.75;;;1.10;;
56425;SDS011;42330;43.620;3.856;2022-11-25T14:20:03;3.17;;;2.00;;
56425;SDS011;42330;43.620;3.856;2022-11-25T14:25:26;2.78;;;1.17;;
56425;SDS011;42330;43.620;3.856;2022-11-25T14:30:51;1.35;;;0.60;;
56425;SDS011;42330;43.620;3.856;2022-11-25T14:33:24;1.63;;;0.63;;
56425;SDS011;42330;43.620;3.856;2022-11-25T14:35:58;2.08;;;0.95;;
56425;SDS011;42330;43.620;3.856;2022-11-25T14:38:46;0.93;;;0.50;;
56425;SDS011;42330;43.620;3.856;2022-11-25T14:41:17;1.05;;;0.70;;
56425;SDS011;42330;43.620;3.856;2022-11-25T14:43:49;1.15;;;0.60;;
56425;SDS011;42330;43.620;3.856;2022-11-25T14:46:25;1.73;;;0.70;;
56425;SDS011;42330;43.620;3.856;2022-11-25T14:48:55;3.72;;;0.88;;
56425;SDS011;42330;43.620;3.856;2022-11-25T14:51:35;0.98;;;0.60;;
56425;SDS011;42330;43.620;3.856;2022-11-25T14:54:05;6.85;;;4.30;;
56425;SDS011;42330;43.620;3.856;2022-11-25T14:56:33;2.55;;;1.60;;
56425;SDS011;42330;43.620;3.856;2022-11-25T14:59:00;1.65;;;1.30;;
56425;SDS011;42330;43.620;3.856;2022-11-25T15:01:27;2.55;;;1.85;;
56425;SDS011;42330;43.620;3.856;2022-11-25T15:06:50;3.55;;;1.63;;
56425;SDS011;42330;43.620;3.856;2022-11-25T15:11:47;2.53;;;1.00;;
56425;SDS011;42330;43.620;3.856;2022-11-25T15:14:22;2.25;;;1.40;;
56425;SDS011;42330;43.620;3.856;2022-11-25T15:16:59;1.95;;;0.88;;
56425;SDS011;42330;43.620;3.856;2022-11-25T15:19:32;1.50;;;0.80;;
56425;SDS011;42330;43.620;3.856;2022-11-25T15:22:02;4.43;;;1.60;;
56425;SDS011;42330;43.620;3.856;2022-11-25T15:24:30;2.45;;;1.35;;
56425;SDS011;42330;43.620;3.856;2022-11-25T15:27:10;3.33;;;1.02;;
56425;SDS011;42330;43.620;3.856;2022-11-25T15:29:42;5.00;;;2.20;;
56425;SDS011;42330;43.620;3.856;2022-11-25T15:32:17;1.70;;;1.00;;
56425;SDS011;42330;43.620;3.856;2022-11-25T15:34:45;1.83;;;1.15;;
56425;SDS011;42330;43.620;3.856;2022-11-25T15:37:12;3.65;;;1.77;;
56425;SDS011;42330;43.620;3.856;2022-11-25T15:39:38;1.55;;;0.60;;
56425;SDS011;42330;43.620;3.856;2022-11-25T15:42:23;1.60;;;0.50;;
56425;SDS011;42330;43.620;3.856;2022-11-25T15:44:52;0.88;;;0.40;;
56425;SDS011;42330;43.620;3.856;2022-11-25T15:47:21;3.40;;;2.13;;
56425;SDS011;42330;43.620;3.856;2022-11-25T15:49:57;1.60;;;0.80;;
56425;SDS011;42330;43.620;3.856;2022-11-25T15:52:23;1.08;;;0.50;;
56425;SDS011;42330;43.620;3.856;2022-11-25T15:54:51;2.17;;;1.05;;
56425;SDS011;42330;43.620;3.856;2022-11-25T16:10:19;0.60;;;0.45;;
56425;SDS011;42330;43.620;3.856;2022-11-25T16:18:13;1.77;;;0.50;;
56425;SDS011;42330;43.620;3.856;2022-11-25T16:21:15;1.55;;;0.55;;
56425;SDS011;42330;43.620;3.856;2022-11-25T16:23:35;1.35;;;0.60;;
56425;SDS011;42330;43.620;3.856;2022-11-25T16:28:35;0.90;;;0.40;;
56425;SDS011;42330;43.620;3.856;2022-11-25T16:31:01;0.82;;;0.40;;
56425;SDS011;42330;43.620;3.856;2022-11-25T16:33:27;1.38;;;0.57;;
56425;SDS011;42330;43.620;3.856;2022-11-25T16:35:53;1.35;;;0.75;;
56425;SDS011;42330;43.620;3.856;2022-11-25T16:38:19;3.55;;;1.63;;
56425;SDS011;42330;43.620;3.856;2022-11-25T16:40:45;2.55;;;1.20;;
56425;SDS011;42330;43.620;3.856;2022-11-25T16:43:21;2.78;;;1.60;;
56425;SDS011;42330;43.620;3.856;2022-11-25T16:45:48;3.47;;;1.77;;
56425;SDS011;42330;43.620;3.856;2022-11-25T16:48:17;5.70;;;3.22;;
56425;SDS011;42330;43.620;3.856;2022-11-25T16:50:45;2.15;;;1.13;;
56425;SDS011;42330;43.620;3.856;2022-11-25T16:53:11;7.57;;;4.45;;
56425;SDS011;42330;43.620;3.856;2022-11-25T16:55:38;3.83;;;1.52;;
56425;SDS011;42330;43.620;3.856;2022-11-25T16:58:17;4.38;;;1.30;;
56425;SDS011;42330;43.620;3.856;2022-11-25T17:00:48;13.90;;;8.15;;
56425;SDS011;42330;43.620;3.856;2022-11-25T17:03:17;8.90;;;4.90;;
56425;SDS011;42330;43.620;3.856;2022-11-25T17:05:43;12.18;;;7.47;;
56425;SDS011;42330;43.620;3.856;2022-11-25T17:08:10;14.68;;;9.23;;
56425;SDS011;42330;43.620;3.856;2022-11-25T17:10:36;8.13;;;4.68;;
56425;SDS011;42330;43.620;3.856;2022-11-25T17:13:03;4.35;;;2.50;;
56425;SDS011;42330;43.620;3.856;2022-11-25T17:15:31;5.10;;;2.60;;
56425;SDS011;42330;43.620;3.856;2022-11-25T17:17:58;4.15;;;1.50;;
56425;SDS011;42330;43.620;3.856;2022-11-25T17:20:26;4.05;;;1.10;;
56425;SDS011;42330;43.620;3.856;2022-11-25T17:22:52;2.85;;;1.10;;
56425;SDS011;42330;43.620;3.856;2022-11-25T17:25:18;4.82;;;1.00;;
56425;SDS011;42330;43.620;3.856;2022-11-25T17:27:47;4.72;;;2.70;;
56425;SDS011;42330;43.620;3.856;2022-11-25T17:30:18;5.78;;;3.15;;
56425;SDS011;42330;43.620;3.856;2022-11-25T17:32:46;5.35;;;3.05;;